createdAt,value
2019-02-25T00:02:38.118Z,5.10
2019-02-25T00:07:29.274Z,5.70
2019-02-25T00:12:20.923Z,5.30
2019-02-25T00:17:11.350Z,6.50
2019-02-25T00:22:02.346Z,5.10
2019-02-25T00:26:53.373Z,6.70
2019-02-25T00:31:45.405Z,5.60
2019-02-25T00:36:37.425Z,6.30
2019-02-25T00:41:29.230Z,4.40
2019-02-25T00:46:20.966Z,6.10
2019-02-25T00:51:12.733Z,6.30
2019-02-25T00:56:04.353Z,3.90
2019-02-25T01:00:56.293Z,5.40
2019-02-25T01:05:47.861Z,5.40
2019-02-25T01:10:39.775Z,4.10
2019-02-25T01:15:31.092Z,5.50
2019-02-25T01:20:21.032Z,4.10
2019-02-25T01:25:11.800Z,4.00
2019-02-25T01:30:03.572Z,7.60
2019-02-25T01:34:55.584Z,7.20
2019-02-25T01:39:47.506Z,5.90
2019-02-25T01:44:39.286Z,5.80
2019-02-25T01:49:30.990Z,5.80
2019-02-25T01:54:22.932Z,5.60
2019-02-25T01:59:14.024Z,5.20
2019-02-25T02:04:05.931Z,6.70
2019-02-25T02:08:57.451Z,5.40
2019-02-25T02:13:47.953Z,6.50
2019-02-25T02:18:39.923Z,8.50
2019-02-25T02:23:31.910Z,7.60
2019-02-25T02:28:24.031Z,5.60
2019-02-25T02:33:15.752Z,8.50
2019-02-25T02:38:07.544Z,6.00
2019-02-25T02:42:59.128Z,7.10
2019-02-25T02:47:50.744Z,6.30
2019-02-25T02:52:42.784Z,9.30
2019-02-25T02:57:34.668Z,6.80
2019-02-25T03:02:26.528Z,7.80
2019-02-25T03:07:18.125Z,4.90
2019-02-25T03:12:09.961Z,6.70
2019-02-25T03:17:01.652Z,6.00
2019-02-25T03:21:53.278Z,5.00
2019-02-25T03:26:45.285Z,8.00
2019-02-25T03:31:36.886Z,4.90
2019-02-25T03:36:27.492Z,9.50
2019-02-25T03:41:17.913Z,7.00
2019-02-25T03:46:09.547Z,5.60
2019-02-25T08:01:12.482Z,8.50
2019-02-25T08:06:05.043Z,10.10
2019-02-25T08:10:56.886Z,6.70
2019-02-25T08:15:48.671Z,5.80
2019-02-25T08:20:40.148Z,7.20
2019-02-25T08:25:31.745Z,5.60
2019-02-25T08:30:23.225Z,3.80
2019-02-25T08:35:15.838Z,4.30
2019-02-25T08:40:07.554Z,9.40
2019-02-25T08:44:59.275Z,5.30
2019-02-25T08:49:52.013Z,4.80
2019-02-25T08:54:44.488Z,5.40
2019-02-25T08:59:36.085Z,7.00
2019-02-25T09:04:28.170Z,8.60
2019-02-25T09:09:20.341Z,4.50
2019-02-25T09:14:11.739Z,3.70
2019-02-25T09:19:03.124Z,5.70
2019-02-25T09:23:54.814Z,6.60
2019-02-25T09:28:47.485Z,3.90
2019-02-25T09:33:39.727Z,5.30
2019-02-25T09:38:32.180Z,8.00
2019-02-25T09:43:23.376Z,3.50
2019-02-25T09:48:16.254Z,4.30
2019-02-25T09:53:08.343Z,5.40
2019-02-25T09:58:02.965Z,5.20
2019-02-25T10:02:54.376Z,4.30
2019-02-25T10:07:45.600Z,7.30
2019-02-25T10:12:37.459Z,5.10
2019-02-25T10:17:29.269Z,4.20
2019-02-25T10:22:20.790Z,14.90
2019-02-25T10:27:12.772Z,4.90
2019-02-25T10:32:06.520Z,5.60
2019-02-25T10:36:59.080Z,4.10
2019-02-25T10:41:53.227Z,8.30
2019-02-25T10:46:50.958Z,6.10
2019-02-25T10:51:43.786Z,4.30
2019-02-25T10:56:37.269Z,4.90
2019-02-25T11:01:29.417Z,4.10
2019-02-25T11:06:21.488Z,5.10
2019-02-25T11:11:18.691Z,7.50
2019-02-25T11:16:18.568Z,2.40
2019-02-25T11:21:11.994Z,3.90
2019-02-25T11:26:03.458Z,4.10
2019-02-25T11:31:11.516Z,3.60
2019-02-25T11:36:17.627Z,4.40
2019-02-25T11:41:11.182Z,5.50
2019-02-25T11:46:01.414Z,4.10
2019-02-25T11:50:53.531Z,5.50
2019-02-25T11:55:45.012Z,5.80
2019-02-25T12:00:37.118Z,3.70
2019-02-25T12:05:30.804Z,4.30
2019-02-25T12:10:22.032Z,3.70
2019-02-25T12:15:13.911Z,5.50
2019-02-25T12:20:05.607Z,4.40
2019-02-25T12:24:58.003Z,5.30
2019-02-25T12:29:50.347Z,3.10
2019-02-25T12:34:42.825Z,5.20
2019-02-25T12:39:35.365Z,2.30
2019-02-25T12:44:27.028Z,2.80
2019-02-25T12:49:18.960Z,2.50
2019-02-25T12:54:11.995Z,2.00
2019-02-25T12:59:05.405Z,2.80
2019-02-25T13:03:57.236Z,3.80
2019-02-25T13:08:49.571Z,6.40
2019-02-25T13:13:42.495Z,6.10
2019-02-25T13:18:35.241Z,7.00
2019-02-25T13:23:27.489Z,5.50
2019-02-25T13:28:21.340Z,8.30
2019-02-25T13:33:22.309Z,5.30
2019-02-25T13:38:14.452Z,8.10
2019-02-25T13:43:07.205Z,7.70
2019-02-25T13:48:00.178Z,5.10
2019-02-25T13:52:52.257Z,4.10
2019-02-25T13:57:46.652Z,4.30
2019-02-25T14:02:38.937Z,4.10
2019-02-25T14:07:31.358Z,2.40
2019-02-25T14:12:25.156Z,1.90
2019-02-25T14:17:18.053Z,3.30
2019-02-25T14:22:10.795Z,3.30
2019-02-25T14:27:03.521Z,3.90
2019-02-25T14:31:56.360Z,6.10
2019-02-25T14:36:50.348Z,2.20
2019-02-25T14:41:54.318Z,2.60
2019-02-25T14:46:56.549Z,3.10
2019-02-25T14:52:04.563Z,4.50
2019-02-25T14:56:57.099Z,3.00
2019-02-25T15:01:51.114Z,5.90
2019-02-25T15:06:42.420Z,3.60
2019-02-25T15:11:34.437Z,4.00
2019-02-25T15:16:26.412Z,6.00
2019-02-25T15:21:18.650Z,3.60
2019-02-25T15:26:10.981Z,5.60
2019-02-25T15:31:06.889Z,6.10
2019-02-25T15:36:05.843Z,15.30
2019-02-25T15:40:58.347Z,5.90
2019-02-25T15:45:59.812Z,4.00
2019-02-25T15:50:52.935Z,5.00
2019-02-25T15:55:50.226Z,7.50
2019-02-25T16:00:44.818Z,4.80
2019-02-25T16:05:38.269Z,5.70
2019-02-25T16:10:30.486Z,6.10
2019-02-25T16:15:23.089Z,4.20
2019-02-25T16:20:17.494Z,6.50
2019-02-25T16:25:11.533Z,2.70
2019-02-25T16:30:05.689Z,6.50
2019-02-25T16:34:58.580Z,7.40
2019-02-25T16:40:00.222Z,5.80
2019-02-25T16:45:01.320Z,4.30
2019-02-25T16:50:02.252Z,4.80
2019-02-25T16:54:54.345Z,6.70
2019-02-25T16:59:46.536Z,8.20
2019-02-25T17:04:38.986Z,4.30
2019-02-25T17:09:31.919Z,8.30
2019-02-25T17:14:31.982Z,6.20
2019-02-25T17:19:24.703Z,6.00
2019-02-25T17:24:17.439Z,5.90
2019-02-25T17:29:14.158Z,6.40
2019-02-25T17:34:06.033Z,7.00
2019-02-25T17:38:58.284Z,10.20
2019-02-25T17:43:52.149Z,6.80
2019-02-25T17:48:48.240Z,10.20
2019-02-25T17:53:40.417Z,7.90
2019-02-25T17:58:35.766Z,8.60
2019-02-25T18:03:35.133Z,10.80
2019-02-25T18:08:35.259Z,7.60
2019-02-25T18:13:30.621Z,5.00
2019-02-25T18:18:27.692Z,8.50
2019-02-25T18:23:21.166Z,6.10
2019-02-25T18:28:13.501Z,9.80
2019-02-25T18:33:12.048Z,5.80
2019-02-25T18:38:05.232Z,7.40
2019-02-25T18:43:00.351Z,4.70
2019-02-25T18:47:56.574Z,5.60
2019-02-25T18:52:49.779Z,7.60
2019-02-25T18:57:50.259Z,8.00
2019-02-25T19:02:43.330Z,8.30
2019-02-25T19:07:35.461Z,13.30
2019-02-25T19:12:27.189Z,9.90
2019-02-25T19:17:20.952Z,7.00
2019-02-25T19:22:19.962Z,9.80
2019-02-25T19:27:12.926Z,11.60
2019-02-25T19:32:04.724Z,12.20
2019-02-25T19:36:58.533Z,8.10
2019-02-25T19:42:02.189Z,7.70
2019-02-25T19:46:55.790Z,10.00
2019-02-25T19:51:48.321Z,8.60
2019-02-25T19:56:44.224Z,8.40
2019-02-25T20:01:45.824Z,84.00
2019-02-25T20:06:39.604Z,39.80
2019-02-25T20:11:37.440Z,73.80
2019-02-25T20:16:30.295Z,23.10
2019-02-25T20:21:24.583Z,40.10
2019-02-25T20:26:22.322Z,40.50
2019-02-25T20:31:16.960Z,38.40
2019-02-25T20:36:08.791Z,29.20
2019-02-25T20:41:02.469Z,26.80
2019-02-25T20:45:54.563Z,20.20
2019-02-25T20:51:00.217Z,21.20
2019-02-25T20:56:00.038Z,19.50
2019-02-25T21:00:51.900Z,16.20
2019-02-25T21:05:43.641Z,15.00
2019-02-25T21:10:36.492Z,12.70
2019-02-25T21:15:28.229Z,14.30
2019-02-25T21:20:23.660Z,12.70
2019-02-25T21:25:22.706Z,13.90
2019-02-25T21:30:25.925Z,16.60
2019-02-25T21:35:17.506Z,13.50
2019-02-25T21:40:09.273Z,17.30
2019-02-25T21:45:02.266Z,17.40
2019-02-25T21:49:54.926Z,17.30
2019-02-25T21:54:59.926Z,22.30
2019-02-25T22:00:00.845Z,17.80
2019-02-25T22:04:55.231Z,14.80
2019-02-25T22:09:47.034Z,13.70
2019-02-25T22:14:38.795Z,12.30
2019-02-25T22:19:39.626Z,14.00
2019-02-25T22:24:40.461Z,15.30
2019-02-25T22:29:31.785Z,14.60
2019-02-25T22:34:31.702Z,11.90
2019-02-25T22:39:25.018Z,14.90
2019-02-25T22:44:22.538Z,13.80
2019-02-25T22:49:24.004Z,15.10
2019-02-25T22:54:21.615Z,13.60
2019-02-25T22:59:13.266Z,12.60
2019-02-25T23:04:05.062Z,13.60
2019-02-25T23:08:57.064Z,12.80
2019-02-25T23:13:50.291Z,13.10
2019-02-25T23:18:44.853Z,18.30
2019-02-25T23:23:40.005Z,15.50
2019-02-25T23:28:31.433Z,15.80
2019-02-25T23:33:24.553Z,15.70
2019-02-25T23:38:15.850Z,14.10
2019-02-25T23:43:09.552Z,16.20
2019-02-25T23:48:08.853Z,14.00
2019-02-25T23:53:02.443Z,10.70
2019-02-25T23:57:54.312Z,12.90
